sensor_id;sensor_type;location;lat;lon;timestamp;pressure;altitude;pressure_sealevel;temperature;humidity
54816;BME280;40715;55.752;37.884;2023-02-28T00:00:37;99378.06;;;26.84;24.70
54816;BME280;40715;55.752;37.884;2023-02-28T00:03:05;99360.44;;;26.80;24.38
54816;BME280;40715;55.752;37.884;2023-02-28T00:05:32;99364.56;;;26.84;25.07
54816;BME280;40715;55.752;37.884;2023-02-28T00:07:59;99367.25;;;26.84;24.84
54816;BME280;40715;55.752;37.884;2023-02-28T00:10:28;99355.88;;;26.80;24.27
54816;BME280;40715;55.752;37.884;2023-02-28T00:12:59;99353.03;;;26.82;24.33
54816;BME280;40715;55.752;37.884;2023-02-28T00:15:27;99357.59;;;26.81;24.71
54816;BME280;40715;55.752;37.884;2023-02-28T00:17:54;99361.44;;;26.79;24.83
54816;BME280;40715;55.752;37.884;2023-02-28T00:20:22;99351.59;;;26.78;25.01
54816;BME280;40715;55.752;37.884;2023-02-28T00:22:51;99338.09;;;26.78;24.79
54816;BME280;40715;55.752;37.884;2023-02-28T00:25:21;99347.06;;;26.78;25.00
54816;BME280;40715;55.752;37.884;2023-02-28T00:27:48;99340.66;;;26.79;24.47
54816;BME280;40715;55.752;37.884;2023-02-28T00:30:18;99347.91;;;26.79;24.97
54816;BME280;40715;55.752;37.884;2023-02-28T00:32:46;99344.38;;;26.78;24.50
54816;BME280;40715;55.752;37.884;2023-02-28T00:35:13;99334.69;;;26.76;25.13
54816;BME280;40715;55.752;37.884;2023-02-28T00:37:40;99330.72;;;26.70;24.91
54816;BME280;40715;55.752;37.884;2023-02-28T00:40:08;99329.75;;;26.71;25.16
54816;BME280;40715;55.752;37.884;2023-02-28T00:42:36;99329.16;;;26.77;24.72
54816;BME280;40715;55.752;37.884;2023-02-28T00:45:03;99320.34;;;26.75;24.47
54816;BME280;40715;55.752;37.884;2023-02-28T00:47:31;99311.38;;;26.75;24.39
54816;BME280;40715;55.752;37.884;2023-02-28T00:49:59;99315.94;;;26.74;24.48
54816;BME280;40715;55.752;37.884;2023-02-28T00:52:26;99316.22;;;26.71;24.55
54816;BME280;40715;55.752;37.884;2023-02-28T00:54:53;99316.22;;;26.71;24.94
54816;BME280;40715;55.752;37.884;2023-02-28T00:57:20;99308.13;;;26.71;24.95
54816;BME280;40715;55.752;37.884;2023-02-28T00:59:47;99308.97;;;26.72;24.95
54816;BME280;40715;55.752;37.884;2023-02-28T01:02:14;99307.41;;;26.69;25.16
54816;BME280;40715;55.752;37.884;2023-02-28T01:04:41;99303.84;;;26.68;24.76
54816;BME280;40715;55.752;37.884;2023-02-28T01:07:08;99295.13;;;26.65;25.17
54816;BME280;40715;55.752;37.884;2023-02-28T01:09:35;99294.28;;;26.64;25.20
54816;BME280;40715;55.752;37.884;2023-02-28T01:12:02;99292.44;;;26.65;25.35
54816;BME280;40715;55.752;37.884;2023-02-28T01:14:29;99286.19;;;26.64;25.46
54816;BME280;40715;55.752;37.884;2023-02-28T01:16:56;99270.97;;;26.63;25.00
54816;BME280;40715;55.752;37.884;2023-02-28T01:19:23;99263.88;;;26.62;25.68
54816;BME280;40715;55.752;37.884;2023-02-28T01:21:50;99259.31;;;26.63;25.33
54816;BME280;40715;55.752;37.884;2023-02-28T01:24:17;99256.78;;;26.61;25.06
54816;BME280;40715;55.752;37.884;2023-02-28T01:26:44;99256.78;;;26.61;25.60
54816;BME280;40715;55.752;37.884;2023-02-28T01:29:11;99253.34;;;26.59;25.31
54816;BME280;40715;55.752;37.884;2023-02-28T01:31:37;99242.69;;;26.58;24.67
54816;BME280;40715;55.752;37.884;2023-02-28T01:34:04;99246.41;;;26.57;24.66
54816;BME280;40715;55.752;37.884;2023-02-28T01:36:31;99247.69;;;26.52;24.35
54816;BME280;40715;55.752;37.884;2023-02-28T01:38:58;99243.13;;;26.53;24.60
54816;BME280;40715;55.752;37.884;2023-02-28T01:41:29;99233.31;;;26.52;24.77
54816;BME280;40715;55.752;37.884;2023-02-28T01:44:06;99229.47;;;26.55;24.89
54816;BME280;40715;55.752;37.884;2023-02-28T01:46:35;99224.22;;;26.53;24.32
54816;BME280;40715;55.752;37.884;2023-02-28T01:49:12;99220.25;;;26.47;24.48
54816;BME280;40715;55.752;37.884;2023-02-28T01:54:27;99209.91;;;26.43;24.94
54816;BME280;40715;55.752;37.884;2023-02-28T01:57:06;99214.72;;;26.49;25.18
54816;BME280;40715;55.752;37.884;2023-02-28T01:59:38;99199.25;;;26.41;24.65
54816;BME280;40715;55.752;37.884;2023-02-28T02:02:13;99200.09;;;26.42;24.71
54816;BME280;40715;55.752;37.884;2023-02-28T02:04:49;99197.84;;;26.37;25.09
54816;BME280;40715;55.752;37.884;2023-02-28T02:07:17;99193.13;;;26.39;24.94
54816;BME280;40715;55.752;37.884;2023-02-28T02:09:44;99188.75;;;26.38;24.78
54816;BME280;40715;55.752;37.884;2023-02-28T02:15:16;99175.47;;;26.45;24.65
54816;BME280;40715;55.752;37.884;2023-02-28T02:17:52;99163.72;;;26.36;24.57
54816;BME280;40715;55.752;37.884;2023-02-28T02:32:22;99167.94;;;26.48;24.62
54816;BME280;40715;55.752;37.884;2023-02-28T02:34:56;99159.44;;;26.33;24.56
54816;BME280;40715;55.752;37.884;2023-02-28T02:37:50;99159.13;;;26.46;25.03
54816;BME280;40715;55.752;37.884;2023-02-28T02:40:42;99155.00;;;26.42;24.99
54816;BME280;40715;55.752;37.884;2023-02-28T02:43:18;99156.47;;;26.37;24.52
54816;BME280;40715;55.752;37.884;2023-02-28T02:48:17;99145.81;;;26.35;24.67
54816;BME280;40715;55.752;37.884;2023-02-28T02:50:49;99145.53;;;26.38;25.14
54816;BME280;40715;55.752;37.884;2023-02-28T02:53:19;99136.25;;;26.41;24.75
54816;BME280;40715;55.752;37.884;2023-02-28T02:55:51;99130.00;;;26.40;24.57
54816;BME280;40715;55.752;37.884;2023-02-28T02:58:36;99129.00;;;26.51;24.78
54816;BME280;40715;55.752;37.884;2023-02-28T03:01:12;99126.03;;;26.44;24.67
54816;BME280;40715;55.752;37.884;2023-02-28T03:03:41;99116.22;;;26.43;24.53
54816;BME280;40715;55.752;37.884;2023-02-28T03:06:09;99114.22;;;26.45;25.50
54816;BME280;40715;55.752;37.884;2023-02-28T03:08:37;99101.59;;;26.36;24.99
54816;BME280;40715;55.752;37.884;2023-02-28T03:11:06;99114.38;;;26.44;25.41
54816;BME280;40715;55.752;37.884;2023-02-28T03:24:56;99101.81;;;26.52;25.78
54816;BME280;40715;55.752;37.884;2023-02-28T03:33:08;99087.44;;;26.52;25.38
54816;BME280;40715;55.752;37.884;2023-02-28T03:35:47;99071.81;;;26.56;25.89
54816;BME280;40715;55.752;37.884;2023-02-28T03:38:38;99059.81;;;26.68;24.96
54816;BME280;40715;55.752;37.884;2023-02-28T03:41:15;99061.16;;;26.54;24.98
54816;BME280;40715;55.752;37.884;2023-02-28T03:43:51;99054.88;;;26.53;25.01
54816;BME280;40715;55.752;37.884;2023-02-28T03:46:24;99057.88;;;26.50;25.01
54816;BME280;40715;55.752;37.884;2023-02-28T03:49:02;99058.31;;;26.56;24.80
54816;BME280;40715;55.752;37.884;2023-02-28T03:51:32;99039.84;;;26.51;24.80
54816;BME280;40715;55.752;37.884;2023-02-28T03:54:05;99037.44;;;26.48;24.61
54816;BME280;40715;55.752;37.884;2023-02-28T03:57:07;99032.84;;;26.58;24.71
54816;BME280;40715;55.752;37.884;2023-02-28T04:00:03;99036.88;;;26.72;24.82
54816;BME280;40715;55.752;37.884;2023-02-28T04:02:33;99026.56;;;26.58;25.30
54816;BME280;40715;55.752;37.884;2023-02-28T04:05:00;99024.03;;;26.56;24.84
54816;BME280;40715;55.752;37.884;2023-02-28T04:07:30;99015.22;;;26.54;24.71
54816;BME280;40715;55.752;37.884;2023-02-28T04:09:57;99014.53;;;26.52;24.77
54816;BME280;40715;55.752;37.884;2023-02-28T04:12:25;99011.66;;;26.53;24.61
54816;BME280;40715;55.752;37.884;2023-02-28T04:14:52;99005.97;;;26.57;24.68
54816;BME280;40715;55.752;37.884;2023-02-28T04:17:19;98988.38;;;26.52;24.80
54816;BME280;40715;55.752;37.884;2023-02-28T04:19:46;98994.31;;;26.56;24.80
54816;BME280;40715;55.752;37.884;2023-02-28T04:22:13;98992.47;;;26.57;25.00
54816;BME280;40715;55.752;37.884;2023-02-28T04:24:40;99001.25;;;26.59;25.29
54816;BME280;40715;55.752;37.884;2023-02-28T04:27:08;98995.72;;;26.60;25.09
54816;BME280;40715;55.752;37.884;2023-02-28T04:29:36;98991.84;;;26.63;25.07
54816;BME280;40715;55.752;37.884;2023-02-28T04:32:03;98983.91;;;26.61;24.87
54816;BME280;40715;55.752;37.884;2023-02-28T04:34:31;98985.75;;;26.61;24.34
54816;BME280;40715;55.752;37.884;2023-02-28T04:36:59;98981.22;;;26.61;24.66
54816;BME280;40715;55.752;37.884;2023-02-28T04:39:43;98966.00;;;26.60;24.89
54816;BME280;40715;55.752;37.884;2023-02-28T04:42:11;98961.88;;;26.56;24.93
54816;BME280;40715;55.752;37.884;2023-02-28T04:44:38;98952.78;;;26.57;25.18
54816;BME280;40715;55.752;37.884;2023-02-28T04:47:05;98961.16;;;26.64;25.49
54816;BME280;40715;55.752;37.884;2023-02-28T04:49:32;98964.38;;;26.67;25.96
54816;BME280;40715;55.752;37.884;2023-02-28T04:51:59;98951.44;;;26.71;26.78
54816;BME280;40715;55.752;37.884;2023-02-28T04:54:27;98949.81;;;26.78;27.02
54816;BME280;40715;55.752;37.884;2023-02-28T04:56:55;98927.88;;;26.81;27.58
54816;BME280;40715;55.752;37.884;2023-02-28T04:59:22;98928.41;;;26.85;27.57
54816;BME280;40715;55.752;37.884;2023-02-28T05:01:49;98923.00;;;26.85;27.17
54816;BME280;40715;55.752;37.884;2023-02-28T05:04:16;98917.84;;;26.92;27.49
54816;BME280;40715;55.752;37.884;2023-02-28T05:06:43;98916.69;;;26.94;27.42
54816;BME280;40715;55.752;37.884;2023-02-28T05:09:11;98911.66;;;26.99;27.19
54816;BME280;40715;55.752;37.884;2023-02-28T05:11:40;98899.66;;;27.02;27.51
54816;BME280;40715;55.752;37.884;2023-02-28T05:14:13;98898.34;;;27.06;26.93
54816;BME280;40715;55.752;37.884;2023-02-28T05:16:41;98887.59;;;27.14;26.82
54816;BME280;40715;55.752;37.884;2023-02-28T05:19:08;98881.53;;;27.20;27.00
54816;BME280;40715;55.752;37.884;2023-02-28T05:21:38;98871.94;;;27.26;26.65
54816;BME280;40715;55.752;37.884;2023-02-28T05:24:09;98878.31;;;27.35;26.77
54816;BME280;40715;55.752;37.884;2023-02-28T05:26:40;98867.00;;;27.40;26.92
54816;BME280;40715;55.752;37.884;2023-02-28T05:29:07;98852.66;;;27.47;26.51
54816;BME280;40715;55.752;37.884;2023-02-28T05:31:35;98855.91;;;27.51;26.35
54816;BME280;40715;55.752;37.884;2023-02-28T05:34:02;98858.31;;;27.62;26.15
54816;BME280;40715;55.752;37.884;2023-02-28T05:36:31;98839.56;;;27.69;26.37
54816;BME280;40715;55.752;37.884;2023-02-28T05:38:58;98839.59;;;27.77;26.19
54816;BME280;40715;55.752;37.884;2023-02-28T05:41:25;98828.78;;;27.85;26.15
54816;BME280;40715;55.752;37.884;2023-02-28T05:43:53;98826.78;;;27.96;26.13
54816;BME280;40715;55.752;37.884;2023-02-28T05:46:20;98823.28;;;28.03;26.05
54816;BME280;40715;55.752;37.884;2023-02-28T05:48:47;98822.44;;;28.11;26.14
54816;BME280;40715;55.752;37.884;2023-02-28T05:51:15;98817.56;;;28.23;25.88
54816;BME280;40715;55.752;37.884;2023-02-28T05:53:42;98813.31;;;28.29;25.75
54816;BME280;40715;55.752;37.884;2023-02-28T05:56:09;98814.03;;;28.39;25.65
54816;BME280;40715;55.752;37.884;2023-02-28T05:58:36;98806.56;;;28.49;25.62
54816;BME280;40715;55.752;37.884;2023-02-28T06:04:08;98791.19;;;28.66;25.20
54816;BME280;40715;55.752;37.884;2023-02-28T06:06:49;98774.91;;;28.74;25.29
54816;BME280;40715;55.752;37.884;2023-02-28T06:09:17;98772.69;;;28.78;25.14
54816;BME280;40715;55.752;37.884;2023-02-28T06:11:44;98769.81;;;28.80;25.20
54816;BME280;40715;55.752;37.884;2023-02-28T06:14:16;98765.91;;;28.82;25.22
54816;BME280;40715;55.752;37.884;2023-02-28T06:16:43;98754.53;;;28.95;24.74
54816;BME280;40715;55.752;37.884;2023-02-28T06:19:11;98722.31;;;29.00;24.98
54816;BME280;40715;55.752;37.884;2023-02-28T06:21:38;98734.00;;;29.09;24.80
54816;BME280;40715;55.752;37.884;2023-02-28T06:24:05;98761.06;;;29.17;24.79
54816;BME280;40715;55.752;37.884;2023-02-28T06:26:32;98743.59;;;29.28;24.69
54816;BME280;40715;55.752;37.884;2023-02-28T06:28:59;98737.81;;;29.31;24.66
54816;BME280;40715;55.752;37.884;2023-02-28T06:31:27;98739.28;;;29.42;24.14
54816;BME280;40715;55.752;37.884;2023-02-28T06:33:56;98750.13;;;29.50;24.48
54816;BME280;40715;55.752;37.884;2023-02-28T06:36:23;98746.31;;;29.59;23.96
54816;BME280;40715;55.752;37.884;2023-02-28T06:38:50;98734.56;;;29.67;24.19
54816;BME280;40715;55.752;37.884;2023-02-28T06:41:23;98735.06;;;29.71;24.08
54816;BME280;40715;55.752;37.884;2023-02-28T06:43:50;98734.69;;;29.74;23.75
54816;BME280;40715;55.752;37.884;2023-02-28T06:46:18;98725.03;;;29.71;24.05
54816;BME280;40715;55.752;37.884;2023-02-28T06:48:46;98712.78;;;29.75;23.86
54816;BME280;40715;55.752;37.884;2023-02-28T06:51:16;98688.53;;;29.74;23.57
54816;BME280;40715;55.752;37.884;2023-02-28T06:53:43;98693.59;;;29.77;23.41
54816;BME280;40715;55.752;37.884;2023-02-28T06:56:13;98700.56;;;29.79;23.62
54816;BME280;40715;55.752;37.884;2023-02-28T06:58:41;98692.03;;;29.83;23.58
54816;BME280;40715;55.752;37.884;2023-02-28T07:01:08;98662.53;;;29.79;23.42
54816;BME280;40715;55.752;37.884;2023-02-28T07:03:36;98686.28;;;29.86;23.40
54816;BME280;40715;55.752;37.884;2023-02-28T07:06:04;98679.00;;;29.86;23.46
54816;BME280;40715;55.752;37.884;2023-02-28T07:08:31;98651.28;;;29.91;23.17
54816;BME280;40715;55.752;37.884;2023-02-28T07:10:59;98640.81;;;29.88;22.93
54816;BME280;40715;55.752;37.884;2023-02-28T07:13:26;98648.56;;;29.91;22.88
54816;BME280;40715;55.752;37.884;2023-02-28T07:15:55;98647.25;;;29.87;22.65
54816;BME280;40715;55.752;37.884;2023-02-28T07:18:23;98650.81;;;29.87;22.92
54816;BME280;40715;55.752;37.884;2023-02-28T07:20:51;98645.06;;;29.82;23.05
54816;BME280;40715;55.752;37.884;2023-02-28T07:23:19;98622.34;;;29.83;22.96
54816;BME280;40715;55.752;37.884;2023-02-28T07:25:47;98619.97;;;29.80;22.93
54816;BME280;40715;55.752;37.884;2023-02-28T07:28:13;98613.88;;;29.78;22.80
54816;BME280;40715;55.752;37.884;2023-02-28T07:30:41;98613.03;;;29.77;23.17
54816;BME280;40715;55.752;37.884;2023-02-28T07:33:09;98606.47;;;29.72;22.77
54816;BME280;40715;55.752;37.884;2023-02-28T07:35:36;98595.28;;;29.67;23.03
54816;BME280;40715;55.752;37.884;2023-02-28T07:38:03;98587.66;;;29.70;22.92
54816;BME280;40715;55.752;37.884;2023-02-28T07:40:31;98585.28;;;29.67;22.83
54816;BME280;40715;55.752;37.884;2023-02-28T07:42:59;98578.38;;;29.65;22.74
54816;BME280;40715;55.752;37.884;2023-02-28T07:45:27;98592.13;;;29.63;22.75
54816;BME280;40715;55.752;37.884;2023-02-28T07:47:55;98593.31;;;29.60;22.93
54816;BME280;40715;55.752;37.884;2023-02-28T07:50:23;98606.22;;;29.58;22.84
54816;BME280;40715;55.752;37.884;2023-02-28T07:52:52;98595.53;;;29.57;23.01
54816;BME280;40715;55.752;37.884;2023-02-28T07:55:19;98580.31;;;29.56;22.84
54816;BME280;40715;55.752;37.884;2023-02-28T07:57:46;98570.53;;;29.47;22.89
54816;BME280;40715;55.752;37.884;2023-02-28T08:00:13;98578.13;;;29.51;22.81
54816;BME280;40715;55.752;37.884;2023-02-28T08:02:40;98564.59;;;29.43;22.52
54816;BME280;40715;55.752;37.884;2023-02-28T08:05:07;98579.88;;;29.44;22.50
54816;BME280;40715;55.752;37.884;2023-02-28T08:07:34;98567.31;;;29.43;22.71
54816;BME280;40715;55.752;37.884;2023-02-28T08:10:01;98568.75;;;29.39;22.60
54816;BME280;40715;55.752;37.884;2023-02-28T08:12:28;98565.41;;;29.29;22.62
54816;BME280;40715;55.752;37.884;2023-02-28T08:14:55;98565.91;;;29.32;22.66
54816;BME280;40715;55.752;37.884;2023-02-28T08:17:22;98558.13;;;29.29;22.63
54816;BME280;40715;55.752;37.884;2023-02-28T08:19:49;98551.00;;;29.28;22.55
54816;BME280;40715;55.752;37.884;2023-02-28T08:22:16;98527.13;;;29.23;22.56
54816;BME280;40715;55.752;37.884;2023-02-28T08:24:43;98531.53;;;29.24;22.58
54816;BME280;40715;55.752;37.884;2023-02-28T08:27:10;98521.09;;;29.13;22.45
54816;BME280;40715;55.752;37.884;2023-02-28T08:29:38;98521.38;;;29.18;22.44
54816;BME280;40715;55.752;37.884;2023-02-28T08:32:06;98499.84;;;29.17;22.46
54816;BME280;40715;55.752;37.884;2023-02-28T08:34:42;98509.00;;;29.16;22.14
54816;BME280;40715;55.752;37.884;2023-02-28T08:37:11;98523.94;;;29.12;22.13
54816;BME280;40715;55.752;37.884;2023-02-28T08:39:38;98523.66;;;29.06;22.03
54816;BME280;40715;55.752;37.884;2023-02-28T08:42:05;98537.41;;;29.05;22.18
54816;BME280;40715;55.752;37.884;2023-02-28T08:44:33;98549.44;;;29.02;22.22
54816;BME280;40715;55.752;37.884;2023-02-28T08:47:00;98558.78;;;29.00;22.12
54816;BME280;40715;55.752;37.884;2023-02-28T08:49:27;98550.19;;;28.96;22.20
54816;BME280;40715;55.752;37.884;2023-02-28T08:51:55;98553.22;;;28.93;22.26
54816;BME280;40715;55.752;37.884;2023-02-28T08:54:24;98557.81;;;28.92;22.21
54816;BME280;40715;55.752;37.884;2023-02-28T08:56:51;98547.50;;;28.88;21.97
54816;BME280;40715;55.752;37.884;2023-02-28T08:59:18;98559.19;;;28.88;21.93
54816;BME280;40715;55.752;37.884;2023-02-28T09:01:45;98549.72;;;28.84;22.13
54816;BME280;40715;55.752;37.884;2023-02-28T09:04:12;98534.66;;;28.82;21.92
54816;BME280;40715;55.752;37.884;2023-02-28T09:06:40;98527.41;;;28.74;22.06
54816;BME280;40715;55.752;37.884;2023-02-28T09:09:07;98509.16;;;28.68;21.98
54816;BME280;40715;55.752;37.884;2023-02-28T09:11:36;98518.47;;;28.73;21.45
54816;BME280;40715;55.752;37.884;2023-02-28T09:14:03;98501.69;;;28.70;21.82
54816;BME280;40715;55.752;37.884;2023-02-28T09:16:32;98497.13;;;28.70;21.68
54816;BME280;40715;55.752;37.884;2023-02-28T09:19:00;98496.28;;;28.70;21.82
54816;BME280;40715;55.752;37.884;2023-02-28T09:21:27;98486.16;;;28.64;21.79
54816;BME280;40715;55.752;37.884;2023-02-28T09:23:55;98491.88;;;28.69;21.65
54816;BME280;40715;55.752;37.884;2023-02-28T09:26:24;98478.69;;;28.66;21.74
54816;BME280;40715;55.752;37.884;2023-02-28T09:28:52;98470.22;;;28.61;21.66
54816;BME280;40715;55.752;37.884;2023-02-28T09:31:25;98481.75;;;28.63;21.70
54816;BME280;40715;55.752;37.884;2023-02-28T09:33:54;98480.06;;;28.62;21.68
54816;BME280;40715;55.752;37.884;2023-02-28T09:36:23;98492.91;;;28.59;21.70
54816;BME280;40715;55.752;37.884;2023-02-28T09:39:03;98494.63;;;28.61;21.78
54816;BME280;40715;55.752;37.884;2023-02-28T09:41:37;98494.78;;;28.59;21.76
54816;BME280;40715;55.752;37.884;2023-02-28T09:44:07;98494.78;;;28.59;21.60
54816;BME280;40715;55.752;37.884;2023-02-28T09:46:45;98497.00;;;28.55;21.67
54816;BME280;40715;55.752;37.884;2023-02-28T09:49:18;98496.69;;;28.50;21.64
54816;BME280;40715;55.752;37.884;2023-02-28T09:54:24;98450.88;;;28.40;21.66
54816;BME280;40715;55.752;37.884;2023-02-28T09:56:58;98461.88;;;28.39;21.72
54816;BME280;40715;55.752;37.884;2023-02-28T10:02:36;98450.34;;;28.45;21.74
54816;BME280;40715;55.752;37.884;2023-02-28T10:08:19;98431.94;;;28.32;21.64
54816;BME280;40715;55.752;37.884;2023-02-28T10:10:55;98441.81;;;28.25;21.96
54816;BME280;40715;55.752;37.884;2023-02-28T10:16:22;98422.66;;;28.27;21.82
54816;BME280;40715;55.752;37.884;2023-02-28T10:18:55;98402.75;;;28.19;21.69
54816;BME280;40715;55.752;37.884;2023-02-28T10:21:35;98402.56;;;28.21;21.82
54816;BME280;40715;55.752;37.884;2023-02-28T10:24:32;98407.25;;;28.27;21.73
54816;BME280;40715;55.752;37.884;2023-02-28T10:27:15;98414.72;;;28.25;21.67
54816;BME280;40715;55.752;37.884;2023-02-28T10:29:45;98378.03;;;28.14;21.74
54816;BME280;40715;55.752;37.884;2023-02-28T10:32:20;98393.94;;;28.17;21.65
54816;BME280;40715;55.752;37.884;2023-02-28T10:34:53;98369.75;;;28.16;21.68
54816;BME280;40715;55.752;37.884;2023-02-28T10:37:23;98364.50;;;28.14;21.52
54816;BME280;40715;55.752;37.884;2023-02-28T10:39:50;98371.78;;;28.14;21.30
54816;BME280;40715;55.752;37.884;2023-02-28T10:42:23;98380.75;;;28.14;21.49
54816;BME280;40715;55.752;37.884;2023-02-28T10:45:13;98391.88;;;28.28;21.37
54816;BME280;40715;55.752;37.884;2023-02-28T10:48:04;98379.16;;;28.28;21.39
54816;BME280;40715;55.752;37.884;2023-02-28T10:50:35;98389.88;;;28.13;21.40
54816;BME280;40715;55.752;37.884;2023-02-28T10:59:01;98381.53;;;28.23;21.33
54816;BME280;40715;55.752;37.884;2023-02-28T11:01:45;98358.72;;;28.17;21.52
54816;BME280;40715;55.752;37.884;2023-02-28T11:07:00;98357.28;;;28.06;21.46
54816;BME280;40715;55.752;37.884;2023-02-28T11:09:32;98350.19;;;27.97;21.32
54816;BME280;40715;55.752;37.884;2023-02-28T11:12:07;98354.94;;;27.95;21.51
54816;BME280;40715;55.752;37.884;2023-02-28T11:14:49;98356.41;;;28.06;21.23
54816;BME280;40715;55.752;37.884;2023-02-28T11:17:35;98337.13;;;28.09;21.34
54816;BME280;40715;55.752;37.884;2023-02-28T11:20:07;98344.13;;;27.95;21.32
54816;BME280;40715;55.752;37.884;2023-02-28T11:22:44;98342.25;;;27.96;21.53
54816;BME280;40715;55.752;37.884;2023-02-28T11:25:41;98338.09;;;28.16;21.21
54816;BME280;40715;55.752;37.884;2023-02-28T11:28:48;98329.06;;;28.24;21.11
54816;BME280;40715;55.752;37.884;2023-02-28T11:31:30;98341.41;;;28.03;21.01
54816;BME280;40715;55.752;37.884;2023-02-28T11:33:58;98326.00;;;27.96;21.18
54816;BME280;40715;55.752;37.884;2023-02-28T11:36:29;98328.69;;;27.96;21.25
54816;BME280;40715;55.752;37.884;2023-02-28T11:39:00;98325.00;;;27.97;21.25
54816;BME280;40715;55.752;37.884;2023-02-28T11:52:48;98310.56;;;28.04;21.25
54816;BME280;40715;55.752;37.884;2023-02-28T11:55:28;98334.09;;;28.04;21.19
54816;BME280;40715;55.752;37.884;2023-02-28T12:03:27;98307.03;;;28.04;21.28
54816;BME280;40715;55.752;37.884;2023-02-28T12:11:55;98278.72;;;28.15;21.33
54816;BME280;40715;55.752;37.884;2023-02-28T12:14:50;98278.22;;;28.11;21.23
54816;BME280;40715;55.752;37.884;2023-02-28T12:20:17;98293.09;;;28.15;21.45
54816;BME280;40715;55.752;37.884;2023-02-28T12:23:19;98288.56;;;28.07;21.54
54816;BME280;40715;55.752;37.884;2023-02-28T12:28:21;98273.56;;;27.97;21.53
54816;BME280;40715;55.752;37.884;2023-02-28T12:30:58;98292.16;;;28.00;21.27
54816;BME280;40715;55.752;37.884;2023-02-28T12:33:29;98283.13;;;28.62;20.97
54816;BME280;40715;55.752;37.884;2023-02-28T12:36:03;98280.34;;;28.01;21.40
54816;BME280;40715;55.752;37.884;2023-02-28T12:41:48;98269.78;;;28.06;21.50
54816;BME280;40715;55.752;37.884;2023-02-28T12:47:17;98245.34;;;27.91;21.49
54816;BME280;40715;55.752;37.884;2023-02-28T12:49:50;98236.72;;;27.87;21.41
54816;BME280;40715;55.752;37.884;2023-02-28T13:00:39;98203.53;;;27.94;21.40
54816;BME280;40715;55.752;37.884;2023-02-28T13:03:32;98214.81;;;28.05;21.24
54816;BME280;40715;55.752;37.884;2023-02-28T13:09:37;98192.50;;;28.03;21.33
54816;BME280;40715;55.752;37.884;2023-02-28T13:11:58;98203.53;;;27.94;21.18
54816;BME280;40715;55.752;37.884;2023-02-28T13:14:28;98195.59;;;27.92;21.13
54816;BME280;40715;55.752;37.884;2023-02-28T13:17:02;98202.22;;;27.89;21.22
54816;BME280;40715;55.752;37.884;2023-02-28T13:19:32;98190.91;;;27.86;21.10
54816;BME280;40715;55.752;37.884;2023-02-28T13:22:01;98191.56;;;27.88;21.19
54816;BME280;40715;55.752;37.884;2023-02-28T13:24:45;98202.50;;;27.95;21.21
54816;BME280;40715;55.752;37.884;2023-02-28T13:27:20;98201.34;;;27.89;21.09
54816;BME280;40715;55.752;37.884;2023-02-28T13:29:52;98202.03;;;27.91;21.11
54816;BME280;40715;55.752;37.884;2023-02-28T13:50:35;98158.66;;;28.22;20.84
54816;BME280;40715;55.752;37.884;2023-02-28T14:01:43;98148.53;;;28.01;21.12
54816;BME280;40715;55.752;37.884;2023-02-28T14:04:43;98157.66;;;28.00;20.91
54816;BME280;40715;55.752;37.884;2023-02-28T14:07:19;98160.25;;;27.94;21.21
54816;BME280;40715;55.752;37.884;2023-02-28T14:10:03;98162.28;;;27.92;21.28
54816;BME280;40715;55.752;37.884;2023-02-28T14:15:44;98156.75;;;27.85;21.25
54816;BME280;40715;55.752;37.884;2023-02-28T14:20:45;98158.97;;;27.81;21.02
54816;BME280;40715;55.752;37.884;2023-02-28T14:23:55;98154.88;;;27.85;21.28
54816;BME280;40715;55.752;37.884;2023-02-28T14:26:26;98150.31;;;27.86;21.24
54816;BME280;40715;55.752;37.884;2023-02-28T14:32:13;98141.66;;;27.90;21.20
54816;BME280;40715;55.752;37.884;2023-02-28T14:37:26;98133.34;;;27.92;21.11
54816;BME280;40715;55.752;37.884;2023-02-28T14:40:00;98128.78;;;27.93;21.24
54816;BME280;40715;55.752;37.884;2023-02-28T14:42:37;98126.91;;;27.93;21.07
54816;BME280;40715;55.752;37.884;2023-02-28T14:45:20;98133.97;;;28.02;20.97
54816;BME280;40715;55.752;37.884;2023-02-28T14:47:53;98108.81;;;27.94;21.14
54816;BME280;40715;55.752;37.884;2023-02-28T14:50:27;98113.56;;;27.92;21.08
54816;BME280;40715;55.752;37.884;2023-02-28T14:52:57;98118.78;;;27.93;21.17
54816;BME280;40715;55.752;37.884;2023-02-28T14:55:34;98104.22;;;27.94;20.91
54816;BME280;40715;55.752;37.884;2023-02-28T14:58:03;98119.47;;;27.95;20.91
54816;BME280;40715;55.752;37.884;2023-02-28T15:00:35;98117.75;;;27.94;21.04
54816;BME280;40715;55.752;37.884;2023-02-28T15:05:54;98114.88;;;27.96;20.78
54816;BME280;40715;55.752;37.884;2023-02-28T15:08:23;98145.50;;;27.96;20.87
54816;BME280;40715;55.752;37.884;2023-02-28T15:10:54;98107.00;;;27.86;21.02
54816;BME280;40715;55.752;37.884;2023-02-28T15:13:23;98107.00;;;27.86;20.99
54816;BME280;40715;55.752;37.884;2023-02-28T15:15:58;98111.22;;;27.88;21.08
54816;BME280;40715;55.752;37.884;2023-02-28T15:21:03;98118.50;;;27.88;21.03
54816;BME280;40715;55.752;37.884;2023-02-28T15:23:32;98107.69;;;27.88;21.09
54816;BME280;40715;55.752;37.884;2023-02-28T15:26:02;98119.53;;;27.87;21.14
54816;BME280;40715;55.752;37.884;2023-02-28T15:28:30;98098.06;;;27.85;20.89
54816;BME280;40715;55.752;37.884;2023-02-28T15:31:00;98097.88;;;27.87;21.02
54816;BME280;40715;55.752;37.884;2023-02-28T15:33:30;98106.00;;;27.87;21.08
54816;BME280;40715;55.752;37.884;2023-02-28T15:36:15;98100.31;;;27.97;20.98
54816;BME280;40715;55.752;37.884;2023-02-28T15:38:44;98101.22;;;27.89;20.92
54816;BME280;40715;55.752;37.884;2023-02-28T15:41:24;98097.31;;;27.92;20.95